Time;durP1;ratioP1;P1;durP2;ratioP2;P2;SDS_P1;SDS_P2;PMS_P1;PMS_P2;Temp;Humidity;BMP_temperature;BMP_pressure;BME280_temperature;BME280_humidity;BME280_pressure;Samples;Min_cycle;Max_cycle;Signal;HPM_P1;HPM_P2
2022/03/11 00:00:35;;;;;;;6.33;5.43;;;;;;;;;;5010025;28;20298;-74
2022/03/11 00:03:02;;;;;;;7.03;5.73;;;;;;;;;;4998564;28;20680;-74
2022/03/11 00:05:31;;;;;;;6.43;5.63;;;;;;;;;;4996963;28;20230;-74
2022/03/11 00:07:58;;;;;;;7.23;5.93;;;;;;;;;;4995943;28;20238;-74
2022/03/11 00:10:25;;;;;;;7.40;5.80;;;;;;;;;;5000209;28;20233;-76
2022/03/11 00:12:52;;;;;;;8.50;6.60;;;;;;;;;;5002755;28;20286;-74
2022/03/11 00:15:19;;;;;;;7.70;6.90;;;;;;;;;;4996342;28;20321;-74
2022/03/11 00:17:47;;;;;;;9.43;7.00;;;;;;;;;;4999233;28;20211;-74
2022/03/11 00:20:19;;;;;;;8.77;6.93;;;;;;;;;;4996049;28;20271;-74
2022/03/11 00:22:47;;;;;;;9.93;7.27;;;;;;;;;;4996301;28;20215;-74
2022/03/11 00:25:16;;;;;;;10.53;7.87;;;;;;;;;;4996078;28;20318;-74
2022/03/11 00:27:43;;;;;;;9.37;8.37;;;;;;;;;;5000667;28;20269;-74
2022/03/11 00:30:11;;;;;;;9.50;7.80;;;;;;;;;;4998768;28;20606;-74
2022/03/11 00:32:38;;;;;;;10.37;8.10;;;;;;;;;;5006004;28;20256;-76
2022/03/11 00:35:08;;;;;;;12.87;8.10;;;;;;;;;;5008269;28;20207;-74
2022/03/11 00:37:35;;;;;;;10.37;7.87;;;;;;;;;;5014027;28;20229;-74
2022/03/11 00:40:05;;;;;;;11.23;8.30;;;;;;;;;;5005109;28;20207;-74
2022/03/11 00:42:32;;;;;;;12.37;8.93;;;;;;;;;;4995907;28;20239;-74
2022/03/11 00:44:59;;;;;;;11.70;8.93;;;;;;;;;;5000484;28;20211;-74
2022/03/11 00:47:27;;;;;;;10.07;8.30;;;;;;;;;;4995829;28;20211;-74
2022/03/11 00:49:55;;;;;;;12.20;8.67;;;;;;;;;;5005611;28;20230;-74
2022/03/11 00:52:22;;;;;;;12.87;9.97;;;;;;;;;;5015149;28;20225;-74
2022/03/11 00:54:49;;;;;;;12.33;9.40;;;;;;;;;;5009896;28;20226;-74
2022/03/11 00:57:18;;;;;;;12.50;10.07;;;;;;;;;;4995352;28;20226;-74
2022/03/11 00:59:46;;;;;;;13.00;9.93;;;;;;;;;;4997073;28;20203;-73
2022/03/11 01:02:13;;;;;;;13.17;10.47;;;;;;;;;;4999021;28;20207;-74
2022/03/11 01:04:40;;;;;;;12.43;10.20;;;;;;;;;;5015253;28;20214;-74
2022/03/11 01:07:07;;;;;;;12.00;10.50;;;;;;;;;;5009457;28;20220;-74
2022/03/11 01:09:35;;;;;;;13.10;9.97;;;;;;;;;;5014872;28;20211;-74
2022/03/11 01:12:02;;;;;;;11.90;10.30;;;;;;;;;;5009118;28;20206;-74
2022/03/11 01:14:30;;;;;;;12.13;10.60;;;;;;;;;;4996823;28;20207;-74
2022/03/11 01:16:58;;;;;;;13.70;10.53;;;;;;;;;;5010489;28;20760;-74
2022/03/11 01:19:25;;;;;;;15.90;11.37;;;;;;;;;;5015800;28;20306;-74
2022/03/11 01:21:52;;;;;;;13.03;10.97;;;;;;;;;;5000007;28;20677;-74
2022/03/11 01:24:21;;;;;;;13.90;10.90;;;;;;;;;;5011021;28;20239;-74
2022/03/11 01:26:48;;;;;;;14.57;11.53;;;;;;;;;;5010922;28;20284;-74
2022/03/11 01:29:15;;;;;;;15.47;11.50;;;;;;;;;;5008966;28;20243;-74
2022/03/11 01:31:44;;;;;;;15.23;11.57;;;;;;;;;;5013644;28;20222;-74
2022/03/11 01:34:11;;;;;;;15.63;11.43;;;;;;;;;;4997523;28;20215;-74
2022/03/11 01:36:38;;;;;;;15.17;11.67;;;;;;;;;;5000673;28;20306;-74
2022/03/11 01:39:06;;;;;;;15.27;12.03;;;;;;;;;;5004172;28;20241;-74
2022/03/11 01:41:33;;;;;;;15.93;11.83;;;;;;;;;;5013467;28;20206;-74
2022/03/11 01:44:01;;;;;;;15.27;11.87;;;;;;;;;;5015827;28;20278;-74
2022/03/11 01:46:29;;;;;;;16.77;12.37;;;;;;;;;;5009963;28;20226;-73
2022/03/11 01:48:58;;;;;;;15.63;12.03;;;;;;;;;;4994250;28;20235;-74
2022/03/11 01:51:26;;;;;;;18.57;12.10;;;;;;;;;;4998621;28;20221;-74
2022/03/11 01:53:54;;;;;;;15.47;12.13;;;;;;;;;;5011128;28;20209;-74
2022/03/11 01:56:21;;;;;;;17.93;11.40;;;;;;;;;;5004368;28;20305;-74
2022/03/11 01:59:15;;;;;;;17.13;12.90;;;;;;;;;;5130533;27;20599;-75
2022/03/11 02:01:42;;;;;;;16.63;12.50;;;;;;;;;;5116032;28;20222;-75
2022/03/11 02:04:10;;;;;;;16.37;12.43;;;;;;;;;;5118511;28;20199;-75
2022/03/11 02:06:37;;;;;;;15.60;12.13;;;;;;;;;;5129214;28;20265;-74
2022/03/11 02:09:06;;;;;;;16.43;12.00;;;;;;;;;;5137457;27;20234;-75
2022/03/11 02:11:33;;;;;;;18.07;12.67;;;;;;;;;;5126665;28;20214;-75
2022/03/11 02:14:01;;;;;;;15.63;12.30;;;;;;;;;;5132936;27;20259;-75
2022/03/11 02:16:31;;;;;;;15.03;12.30;;;;;;;;;;5132047;27;20238;-76
2022/03/11 02:18:58;;;;;;;16.03;12.43;;;;;;;;;;5135317;28;20250;-73
2022/03/11 02:21:26;;;;;;;15.50;12.47;;;;;;;;;;5133446;27;20197;-75
2022/03/11 02:23:56;;;;;;;19.40;13.10;;;;;;;;;;5140038;27;20187;-73
2022/03/11 02:26:23;;;;;;;19.67;13.60;;;;;;;;;;5127527;22;20257;-75
2022/03/11 02:28:51;;;;;;;17.70;13.40;;;;;;;;;;5107849;28;20193;-75
2022/03/11 02:31:19;;;;;;;15.57;12.90;;;;;;;;;;5102921;28;20209;-75
2022/03/11 02:33:46;;;;;;;15.07;12.73;;;;;;;;;;5108396;28;20195;-75
2022/03/11 02:36:13;;;;;;;17.27;13.27;;;;;;;;;;5097002;28;20224;-75
2022/03/11 02:38:41;;;;;;;19.50;13.93;;;;;;;;;;5087053;28;20230;-75
2022/03/11 02:41:09;;;;;;;17.43;13.87;;;;;;;;;;5088122;28;20210;-75
2022/03/11 02:43:37;;;;;;;16.93;13.37;;;;;;;;;;5087837;28;20273;-75
2022/03/11 02:46:04;;;;;;;17.63;13.83;;;;;;;;;;5088044;28;20228;-75
2022/03/11 02:48:31;;;;;;;17.93;13.07;;;;;;;;;;5087052;28;20203;-76
2022/03/11 02:50:58;;;;;;;19.27;14.17;;;;;;;;;;5087953;28;20204;-76
2022/03/11 02:53:26;;;;;;;18.80;14.17;;;;;;;;;;5087562;28;20290;-76
2022/03/11 02:55:53;;;;;;;18.80;14.43;;;;;;;;;;5087865;28;20220;-76
2022/03/11 02:58:22;;;;;;;17.63;13.80;;;;;;;;;;5086764;28;20299;-76
2022/03/11 03:00:49;;;;;;;17.17;14.17;;;;;;;;;;5087732;28;20208;-76
2022/03/11 03:03:16;;;;;;;20.20;14.07;;;;;;;;;;5087163;28;20291;-76
2022/03/11 03:05:43;;;;;;;20.00;14.67;;;;;;;;;;5087622;28;20206;-76
2022/03/11 03:08:10;;;;;;;17.93;14.03;;;;;;;;;;5086578;28;20249;-76
2022/03/11 03:10:37;;;;;;;20.30;14.30;;;;;;;;;;5074159;28;20200;-76
2022/03/11 03:13:05;;;;;;;18.10;13.93;;;;;;;;;;5073597;28;20292;-76
2022/03/11 03:15:33;;;;;;;17.97;14.33;;;;;;;;;;5073930;28;20210;-76
2022/03/11 03:18:01;;;;;;;21.00;14.63;;;;;;;;;;5073179;28;20243;-76
2022/03/11 03:20:28;;;;;;;19.70;14.40;;;;;;;;;;5073667;28;20227;-75
2022/03/11 03:22:55;;;;;;;19.27;14.73;;;;;;;;;;5073604;28;20268;-75
2022/03/11 03:25:22;;;;;;;19.97;14.57;;;;;;;;;;5072893;28;20208;-75
2022/03/11 03:27:49;;;;;;;19.17;14.47;;;;;;;;;;5072726;28;20200;-76
2022/03/11 03:30:16;;;;;;;18.03;13.97;;;;;;;;;;5073512;28;20197;-75
2022/03/11 03:32:45;;;;;;;19.20;14.47;;;;;;;;;;5073924;28;20285;-75
2022/03/11 03:35:12;;;;;;;20.80;14.60;;;;;;;;;;5073374;28;20307;-75
2022/03/11 03:37:39;;;;;;;19.90;13.83;;;;;;;;;;5071073;28;20280;-77
2022/03/11 03:40:07;;;;;;;21.73;15.53;;;;;;;;;;5073046;28;20581;-75
2022/03/11 03:42:34;;;;;;;19.03;14.47;;;;;;;;;;5071756;28;20300;-75
2022/03/11 03:45:02;;;;;;;21.67;15.53;;;;;;;;;;5073448;28;20204;-75
2022/03/11 03:47:29;;;;;;;19.00;14.47;;;;;;;;;;5070192;28;20311;-75
2022/03/11 03:49:58;;;;;;;20.97;15.13;;;;;;;;;;5071860;28;20201;-75
2022/03/11 03:52:27;;;;;;;19.00;14.83;;;;;;;;;;5071921;28;20276;-75
2022/03/11 03:54:54;;;;;;;20.17;15.20;;;;;;;;;;5068699;28;20211;-75
2022/03/11 03:57:21;;;;;;;18.67;14.50;;;;;;;;;;5071689;28;20220;-75
2022/03/11 03:59:49;;;;;;;21.23;16.20;;;;;;;;;;5073308;28;20220;-75
2022/03/11 04:02:16;;;;;;;21.50;15.67;;;;;;;;;;5073115;28;20214;-75
2022/03/11 04:04:43;;;;;;;19.90;15.07;;;;;;;;;;5073296;28;20215;-75
2022/03/11 04:07:11;;;;;;;21.47;16.37;;;;;;;;;;5071824;28;20221;-76
2022/03/11 04:09:39;;;;;;;21.83;16.33;;;;;;;;;;5072841;28;20192;-76
2022/03/11 04:12:06;;;;;;;22.53;15.90;;;;;;;;;;5072814;28;20299;-76
2022/03/11 04:14:33;;;;;;;20.23;14.73;;;;;;;;;;5072891;28;20203;-76
2022/03/11 04:17:00;;;;;;;21.07;16.33;;;;;;;;;;5072422;28;20236;-76
2022/03/11 04:19:28;;;;;;;21.47;15.73;;;;;;;;;;5072950;28;20608;-76
2022/03/11 04:21:55;;;;;;;20.87;15.70;;;;;;;;;;5071854;28;20296;-76
2022/03/11 04:24:23;;;;;;;23.20;16.23;;;;;;;;;;5072530;28;20244;-76
2022/03/11 04:26:51;;;;;;;23.77;16.00;;;;;;;;;;5071943;28;20238;-76
2022/03/11 04:29:18;;;;;;;21.90;15.83;;;;;;;;;;5072360;28;20295;-76
2022/03/11 04:31:45;;;;;;;22.83;15.73;;;;;;;;;;5072369;28;20204;-76
2022/03/11 04:34:13;;;;;;;21.93;16.80;;;;;;;;;;5072614;28;20284;-76
2022/03/11 04:36:40;;;;;;;22.23;15.63;;;;;;;;;;5071830;28;20300;-76
2022/03/11 04:39:07;;;;;;;21.10;15.37;;;;;;;;;;5071775;28;20224;-76
2022/03/11 04:41:36;;;;;;;22.63;16.37;;;;;;;;;;5066216;28;20300;-76
2022/03/11 04:44:04;;;;;;;23.53;16.00;;;;;;;;;;5062721;28;20228;-76
2022/03/11 04:46:31;;;;;;;22.77;16.60;;;;;;;;;;5065999;28;20252;-76
2022/03/11 04:48:58;;;;;;;22.97;16.10;;;;;;;;;;5069366;28;20196;-76
2022/03/11 04:51:28;;;;;;;26.50;17.97;;;;;;;;;;5071761;28;20671;-76
2022/03/11 04:53:55;;;;;;;25.03;16.37;;;;;;;;;;5064811;28;20279;-76
2022/03/11 04:56:22;;;;;;;23.83;15.83;;;;;;;;;;5070639;28;20223;-76
2022/03/11 04:58:51;;;;;;;21.80;16.30;;;;;;;;;;5071138;28;20303;-76
2022/03/11 05:01:18;;;;;;;21.27;15.93;;;;;;;;;;5072363;28;20219;-76
2022/03/11 05:03:45;;;;;;;21.17;16.17;;;;;;;;;;5072159;28;20239;-75
2022/03/11 05:06:13;;;;;;;21.03;15.53;;;;;;;;;;5071662;28;20307;-76
2022/03/11 05:08:40;;;;;;;25.70;16.30;;;;;;;;;;5071001;28;20287;-75
2022/03/11 05:11:07;;;;;;;21.13;15.10;;;;;;;;;;5069714;28;20228;-76
2022/03/11 05:13:35;;;;;;;21.40;15.50;;;;;;;;;;5071646;28;20216;-76
2022/03/11 05:16:03;;;;;;;20.27;14.63;;;;;;;;;;5071986;28;20248;-76
2022/03/11 05:18:31;;;;;;;25.33;14.87;;;;;;;;;;5070648;28;20303;-76
2022/03/11 05:20:58;;;;;;;18.73;14.20;;;;;;;;;;5071504;28;20250;-76
2022/03/11 05:23:25;;;;;;;20.47;13.43;;;;;;;;;;5067710;28;20231;-76
2022/03/11 05:25:52;;;;;;;19.90;14.37;;;;;;;;;;5069586;28;20231;-76
2022/03/11 05:28:20;;;;;;;18.67;13.17;;;;;;;;;;5069804;28;20201;-76
2022/03/11 05:30:47;;;;;;;18.87;13.37;;;;;;;;;;5070768;28;20278;-76
2022/03/11 05:33:16;;;;;;;17.70;13.03;;;;;;;;;;5069561;28;20238;-76
2022/03/11 05:35:43;;;;;;;18.87;12.10;;;;;;;;;;5070712;28;20207;-76
2022/03/11 05:38:10;;;;;;;16.43;12.20;;;;;;;;;;5070051;28;20245;-75
2022/03/11 05:40:37;;;;;;;18.57;12.63;;;;;;;;;;5069032;28;20208;-76
2022/03/11 05:43:06;;;;;;;18.40;12.00;;;;;;;;;;5070876;28;20288;-76
2022/03/11 05:45:38;;;;;;;15.23;11.80;;;;;;;;;;5070636;28;20673;-76
2022/03/11 05:48:05;;;;;;;20.33;11.10;;;;;;;;;;5070402;28;20200;-76
2022/03/11 05:50:35;;;;;;;14.57;11.30;;;;;;;;;;5068260;28;20285;-76
2022/03/11 05:53:03;;;;;;;14.77;11.13;;;;;;;;;;5071012;28;20283;-76
2022/03/11 05:55:30;;;;;;;16.43;11.53;;;;;;;;;;5070401;28;20242;-76
2022/03/11 05:58:00;;;;;;;14.27;11.00;;;;;;;;;;5069971;28;20231;-76
2022/03/11 06:00:27;;;;;;;13.53;10.80;;;;;;;;;;5070866;28;20188;-76
2022/03/11 06:02:57;;;;;;;15.17;10.80;;;;;;;;;;5070792;28;20292;-76
2022/03/11 06:05:24;;;;;;;14.73;10.17;;;;;;;;;;5070887;28;20258;-76
2022/03/11 06:07:52;;;;;;;14.17;10.13;;;;;;;;;;5069868;28;20208;-76
2022/03/11 06:10:20;;;;;;;14.20;10.73;;;;;;;;;;5069703;28;20287;-76
2022/03/11 06:12:47;;;;;;;14.03;10.63;;;;;;;;;;5070560;28;20204;-76
2022/03/11 06:15:14;;;;;;;14.10;10.07;;;;;;;;;;5070473;28;20212;-76
2022/03/11 06:17:44;;;;;;;14.70;10.27;;;;;;;;;;5070306;28;20235;-77
2022/03/11 06:20:13;;;;;;;15.40;10.87;;;;;;;;;;5070527;28;20690;-76
2022/03/11 06:22:48;;;;;;;15.10;9.83;;;;;;;;;;5071222;28;20239;-76
2022/03/11 06:25:16;;;;;;;14.60;9.60;;;;;;;;;;5070763;28;20224;-77
2022/03/11 06:27:45;;;;;;;14.17;10.10;;;;;;;;;;5070126;28;20289;-76
2022/03/11 06:30:12;;;;;;;13.33;9.50;;;;;;;;;;5070627;28;20295;-76
2022/03/11 06:32:43;;;;;;;11.70;9.10;;;;;;;;;;5071984;28;20276;-76
2022/03/11 06:35:13;;;;;;;12.53;9.00;;;;;;;;;;5067812;28;20208;-76
2022/03/11 06:37:43;;;;;;;13.70;10.80;;;;;;;;;;5063753;28;20308;-77
2022/03/11 06:40:11;;;;;;;13.07;9.00;;;;;;;;;;5070439;28;20294;-77
2022/03/11 06:42:41;;;;;;;12.03;8.70;;;;;;;;;;5070728;28;20219;-76
2022/03/11 06:45:08;;;;;;;13.80;9.00;;;;;;;;;;5072997;28;20231;-76
2022/03/11 06:47:36;;;;;;;12.97;8.67;;;;;;;;;;5074038;28;20255;-76
2022/03/11 06:50:03;;;;;;;12.10;8.80;;;;;;;;;;5072236;28;20279;-76
2022/03/11 06:52:33;;;;;;;11.77;8.17;;;;;;;;;;5073997;28;20283;-77
2022/03/11 06:55:02;;;;;;;11.07;8.67;;;;;;;;;;5071371;28;20201;-76
2022/03/11 06:57:29;;;;;;;12.63;8.27;;;;;;;;;;5068702;28;20256;-76
2022/03/11 06:59:57;;;;;;;11.70;8.20;;;;;;;;;;5072211;28;20212;-76
2022/03/11 07:02:32;;;;;;;11.77;8.43;;;;;;;;;;5074182;28;20228;-77
2022/03/11 07:05:00;;;;;;;12.40;7.93;;;;;;;;;;5073994;28;20307;-76
2022/03/11 07:07:29;;;;;;;13.47;7.80;;;;;;;;;;5072523;28;20224;-76
2022/03/11 07:09:56;;;;;;;11.53;7.93;;;;;;;;;;5073438;28;20235;-76
2022/03/11 07:12:23;;;;;;;11.33;7.63;;;;;;;;;;5074073;28;20208;-76
2022/03/11 07:14:54;;;;;;;9.10;7.53;;;;;;;;;;5073251;28;20283;-76
2022/03/11 07:17:22;;;;;;;10.30;7.57;;;;;;;;;;5072806;28;20225;-76
2022/03/11 07:19:49;;;;;;;10.20;7.53;;;;;;;;;;5070709;28;20315;-76
2022/03/11 07:22:17;;;;;;;12.50;7.60;;;;;;;;;;5070922;28;20215;-78
2022/03/11 07:24:45;;;;;;;8.80;6.77;;;;;;;;;;5073184;28;20275;-75
2022/03/11 07:27:12;;;;;;;10.07;7.37;;;;;;;;;;5074637;28;20236;-75
2022/03/11 07:29:39;;;;;;;10.20;8.03;;;;;;;;;;5074831;28;20261;-75
2022/03/11 07:32:08;;;;;;;9.50;7.40;;;;;;;;;;5073942;28;20236;-75
2022/03/11 07:34:36;;;;;;;10.20;8.03;;;;;;;;;;5073145;28;20201;-75
2022/03/11 07:37:05;;;;;;;10.40;7.63;;;;;;;;;;5069131;28;20228;-76
2022/03/11 07:39:33;;;;;;;10.77;7.80;;;;;;;;;;5073174;28;20236;-77
2022/03/11 07:42:00;;;;;;;9.93;7.80;;;;;;;;;;5075233;28;20192;-76
2022/03/11 07:44:27;;;;;;;9.50;8.03;;;;;;;;;;5072684;28;20228;-77
2022/03/11 07:46:54;;;;;;;10.13;7.57;;;;;;;;;;5066172;28;20307;-77
2022/03/11 07:49:23;;;;;;;9.97;7.43;;;;;;;;;;5074335;28;20207;-77
2022/03/11 07:51:52;;;;;;;10.43;8.00;;;;;;;;;;5068586;28;20303;-77
2022/03/11 07:54:19;;;;;;;12.13;7.67;;;;;;;;;;5068592;28;20287;-77
2022/03/11 07:56:46;;;;;;;9.83;7.57;;;;;;;;;;5072435;28;20228;-77
2022/03/11 07:59:13;;;;;;;12.50;7.67;;;;;;;;;;5074538;28;20237;-77
2022/03/11 08:01:41;;;;;;;10.57;7.63;;;;;;;;;;5074271;28;20215;-77
2022/03/11 08:04:10;;;;;;;13.60;8.20;;;;;;;;;;5074022;28;20261;-81
2022/03/11 08:06:38;;;;;;;9.83;8.03;;;;;;;;;;5083765;28;20224;-81
2022/03/11 08:09:06;;;;;;;10.40;8.13;;;;;;;;;;5085747;28;20196;-80
2022/03/11 08:11:34;;;;;;;14.03;7.93;;;;;;;;;;5084154;28;20210;-84
2022/03/11 08:14:01;;;;;;;12.37;7.80;;;;;;;;;;5077518;28;20204;-77
2022/03/11 08:16:28;;;;;;;11.50;8.17;;;;;;;;;;5072705;28;20232;-75
2022/03/11 08:18:57;;;;;;;11.20;8.23;;;;;;;;;;5073174;28;20342;-75
2022/03/11 08:21:24;;;;;;;10.17;8.13;;;;;;;;;;5072433;28;20672;-76
2022/03/11 08:23:51;;;;;;;9.53;8.20;;;;;;;;;;5072679;28;20287;-76
2022/03/11 08:26:20;;;;;;;10.03;7.80;;;;;;;;;;5069248;28;20266;-76
2022/03/11 08:28:47;;;;;;;9.77;8.23;;;;;;;;;;5070964;28;20236;-76
2022/03/11 08:31:15;;;;;;;10.27;8.70;;;;;;;;;;5072082;28;20224;-76
2022/03/11 08:33:42;;;;;;;12.70;8.60;;;;;;;;;;5070679;28;20199;-76
2022/03/11 08:36:09;;;;;;;11.57;8.50;;;;;;;;;;5072537;28;20251;-76
2022/03/11 08:38:37;;;;;;;9.57;7.80;;;;;;;;;;5070354;28;20209;-75
2022/03/11 08:41:07;;;;;;;10.53;8.33;;;;;;;;;;5071942;28;20648;-75
2022/03/11 08:43:38;;;;;;;12.23;8.40;;;;;;;;;;5072817;28;20197;-75
2022/03/11 08:46:05;;;;;;;12.73;9.40;;;;;;;;;;5073255;28;20224;-76
2022/03/11 08:48:32;;;;;;;11.77;8.90;;;;;;;;;;5071931;28;20210;-75
2022/03/11 08:50:59;;;;;;;12.77;9.87;;;;;;;;;;5073239;28;20263;-77
2022/03/11 08:53:27;;;;;;;11.73;8.93;;;;;;;;;;5072300;28;20243;-77
2022/03/11 08:55:54;;;;;;;11.97;8.50;;;;;;;;;;5071019;28;20220;-76
2022/03/11 08:58:21;;;;;;;15.53;8.43;;;;;;;;;;5071778;28;20207;-77
2022/03/11 09:00:50;;;;;;;13.90;8.93;;;;;;;;;;5070342;28;20223;-77
2022/03/11 09:03:17;;;;;;;9.83;8.27;;;;;;;;;;5068100;28;20199;-76
2022/03/11 09:05:44;;;;;;;10.47;8.20;;;;;;;;;;5071381;28;20264;-78
2022/03/11 09:08:11;;;;;;;9.07;7.90;;;;;;;;;;5070528;28;20235;-77
2022/03/11 09:10:39;;;;;;;10.47;8.20;;;;;;;;;;5071097;28;20326;-78
2022/03/11 09:13:06;;;;;;;11.27;8.40;;;;;;;;;;5072066;28;20200;-78
2022/03/11 09:15:33;;;;;;;11.60;8.27;;;;;;;;;;5071724;28;20201;-77
2022/03/11 09:18:02;;;;;;;10.33;8.53;;;;;;;;;;5071187;28;20295;-77
2022/03/11 09:20:29;;;;;;;11.67;8.77;;;;;;;;;;5127141;22;20302;-74
2022/03/11 09:22:56;;;;;;;13.00;8.37;;;;;;;;;;5111293;28;20191;-76
2022/03/11 09:25:23;;;;;;;11.53;8.50;;;;;;;;;;5112301;28;20282;-74
2022/03/11 09:27:51;;;;;;;10.13;8.60;;;;;;;;;;5112041;28;20294;-75
2022/03/11 09:30:18;;;;;;;10.70;7.97;;;;;;;;;;5094815;28;20297;-75
2022/03/11 09:32:48;;;;;;;10.83;9.00;;;;;;;;;;5092005;28;20260;-76
2022/03/11 09:35:17;;;;;;;15.10;8.87;;;;;;;;;;5092153;28;20290;-74
2022/03/11 09:37:44;;;;;;;14.57;8.40;;;;;;;;;;5091145;28;20207;-75
2022/03/11 09:40:12;;;;;;;15.03;8.83;;;;;;;;;;5090230;28;20276;-74
2022/03/11 09:42:39;;;;;;;10.90;9.07;;;;;;;;;;5088661;28;20279;-75
2022/03/11 09:45:10;;;;;;;11.63;8.90;;;;;;;;;;5093054;28;20292;-77
2022/03/11 09:47:39;;;;;;;11.90;8.53;;;;;;;;;;5088706;28;20206;-76
2022/03/11 09:50:06;;;;;;;12.33;8.60;;;;;;;;;;5092527;28;20216;-75
2022/03/11 09:52:35;;;;;;;10.27;9.10;;;;;;;;;;5088740;28;20204;-75
2022/03/11 09:55:02;;;;;;;10.03;8.40;;;;;;;;;;5089889;28;20206;-76
2022/03/11 09:57:30;;;;;;;12.40;9.10;;;;;;;;;;5091953;28;20210;-75
2022/03/11 09:59:57;;;;;;;11.53;8.90;;;;;;;;;;5091714;28;20292;-75
2022/03/11 10:02:24;;;;;;;14.00;9.13;;;;;;;;;;5090612;28;20208;-76
2022/03/11 10:04:52;;;;;;;12.30;8.77;;;;;;;;;;5089389;28;20224;-75
2022/03/11 10:07:23;;;;;;;11.13;8.40;;;;;;;;;;5088722;28;20200;-75
2022/03/11 10:09:53;;;;;;;10.07;8.47;;;;;;;;;;5091714;28;20226;-75
2022/03/11 10:12:24;;;;;;;9.63;8.50;;;;;;;;;;5087752;28;20214;-75
2022/03/11 10:14:59;;;;;;;11.60;8.87;;;;;;;;;;5088600;28;20723;-76
2022/03/11 10:17:26;;;;;;;13.40;9.00;;;;;;;;;;5089261;28;20207;-75
2022/03/11 10:19:58;;;;;;;12.50;8.40;;;;;;;;;;5088394;28;20306;-75
2022/03/11 10:22:26;;;;;;;12.00;9.07;;;;;;;;;;5093170;28;20212;-75
2022/03/11 10:24:55;;;;;;;10.13;8.40;;;;;;;;;;5095995;28;20273;-76
2022/03/11 10:27:23;;;;;;;14.53;8.77;;;;;;;;;;5093792;28;20627;-75
2022/03/11 10:29:51;;;;;;;12.37;9.07;;;;;;;;;;5093247;28;20215;-75
2022/03/11 10:32:25;;;;;;;10.73;8.23;;;;;;;;;;5092805;28;20234;-75
2022/03/11 10:34:52;;;;;;;10.30;8.40;;;;;;;;;;5094563;28;20227;-76
2022/03/11 10:37:20;;;;;;;12.43;8.87;;;;;;;;;;5092715;28;20199;-77
2022/03/11 10:39:48;;;;;;;10.57;8.43;;;;;;;;;;5090996;28;20216;-76
2022/03/11 10:42:18;;;;;;;11.17;8.83;;;;;;;;;;5093843;28;20271;-77
2022/03/11 10:44:55;;;;;;;11.03;8.63;;;;;;;;;;5093105;28;20200;-75
2022/03/11 10:47:24;;;;;;;10.93;8.50;;;;;;;;;;5089075;28;20227;-75
2022/03/11 10:49:54;;;;;;;9.77;8.30;;;;;;;;;;5092140;28;20216;-76
2022/03/11 10:52:32;;;;;;;11.40;9.40;;;;;;;;;;5084817;28;20200;-73
2022/03/11 10:55:00;;;;;;;11.77;9.33;;;;;;;;;;5090030;28;20278;-74
2022/03/11 10:57:38;;;;;;;12.07;10.03;;;;;;;;;;5086981;28;20647;-75
2022/03/11 11:00:19;;;;;;;13.67;10.70;;;;;;;;;;5089431;28;20215;-74
2022/03/11 11:02:47;;;;;;;12.53;9.60;;;;;;;;;;5088911;28;20229;-74
2022/03/11 11:05:14;;;;;;;20.83;13.73;;;;;;;;;;5086723;28;20283;-75
2022/03/11 11:07:42;;;;;;;21.23;14.30;;;;;;;;;;5088863;28;20227;-75
2022/03/11 11:10:10;;;;;;;12.83;9.67;;;;;;;;;;5094216;28;20235;-75
2022/03/11 11:12:39;;;;;;;13.37;10.80;;;;;;;;;;5093840;28;20208;-75
2022/03/11 11:15:06;;;;;;;12.83;9.50;;;;;;;;;;5094449;28;20665;-75
2022/03/11 11:17:34;;;;;;;13.03;10.00;;;;;;;;;;5093311;28;20200;-75
2022/03/11 11:20:02;;;;;;;11.17;9.03;;;;;;;;;;5094439;28;20235;-72
2022/03/11 11:22:30;;;;;;;11.93;9.83;;;;;;;;;;5091101;28;20199;-76
2022/03/11 11:24:57;;;;;;;12.83;9.50;;;;;;;;;;5082424;28;20245;-77
2022/03/11 11:27:25;;;;;;;13.70;9.03;;;;;;;;;;5085590;28;20203;-75
2022/03/11 11:29:54;;;;;;;11.27;10.07;;;;;;;;;;5082640;28;20670;-76
2022/03/11 11:32:23;;;;;;;11.70;9.57;;;;;;;;;;5085803;28;20226;-76
2022/03/11 11:34:50;;;;;;;11.23;9.10;;;;;;;;;;5084982;28;20269;-75
2022/03/11 11:37:35;;;;;;;11.47;9.00;;;;;;;;;;5086292;28;20204;-76
2022/03/11 11:40:17;;;;;;;12.87;9.77;;;;;;;;;;5089409;28;20220;-77
2022/03/11 11:43:06;;;;;;;10.50;9.00;;;;;;;;;;5088543;28;20199;-78
2022/03/11 11:45:48;;;;;;;11.93;10.20;;;;;;;;;;5089597;28;20710;-77
2022/03/11 11:48:42;;;;;;;13.30;9.73;;;;;;;;;;5090815;28;20661;-79
2022/03/11 11:51:11;;;;;;;11.30;9.10;;;;;;;;;;5074049;28;20207;-77
2022/03/11 11:53:40;;;;;;;11.63;9.43;;;;;;;;;;5094805;28;20207;-78
2022/03/11 11:56:23;;;;;;;12.43;9.03;;;;;;;;;;5095738;28;20208;-78
2022/03/11 11:58:56;;;;;;;11.57;9.13;;;;;;;;;;5085779;28;20202;-78
2022/03/11 12:01:46;;;;;;;11.63;9.27;;;;;;;;;;5093808;28;20220;-77
2022/03/11 12:04:23;;;;;;;12.40;9.50;;;;;;;;;;5087840;28;20279;-77
2022/03/11 12:06:54;;;;;;;10.43;9.30;;;;;;;;;;5091905;28;20647;-78
2022/03/11 12:09:39;;;;;;;11.63;9.27;;;;;;;;;;5093909;28;20280;-78
2022/03/11 12:12:06;;;;;;;10.23;8.90;;;;;;;;;;5090774;28;20287;-78
2022/03/11 12:14:34;;;;;;;10.83;9.20;;;;;;;;;;5093441;28;20219;-78
2022/03/11 12:17:05;;;;;;;10.87;9.40;;;;;;;;;;5092430;28;20658;-78
2022/03/11 12:19:50;;;;;;;11.50;9.33;;;;;;;;;;5088962;28;20257;-78
2022/03/11 12:22:23;;;;;;;11.20;8.57;;;;;;;;;;5083740;28;20238;-77
2022/03/11 12:25:00;;;;;;;12.03;9.07;;;;;;;;;;5086471;28;20201;-78
2022/03/11 12:27:49;;;;;;;10.90;9.43;;;;;;;;;;5087741;28;20257;-78
2022/03/11 12:30:16;;;;;;;11.23;9.03;;;;;;;;;;5085212;28;20271;-77
2022/03/11 12:32:45;;;;;;;11.67;9.23;;;;;;;;;;5090406;28;20199;-77
2022/03/11 12:35:13;;;;;;;10.80;9.27;;;;;;;;;;5091531;28;20211;-78
2022/03/11 12:37:40;;;;;;;11.03;9.27;;;;;;;;;;5092998;28;20241;-78
2022/03/11 12:40:10;;;;;;;11.27;9.00;;;;;;;;;;5092908;28;20223;-77
2022/03/11 12:42:38;;;;;;;10.63;8.90;;;;;;;;;;5092764;28;20202;-78
2022/03/11 12:45:06;;;;;;;11.20;9.20;;;;;;;;;;5093123;28;20218;-77
2022/03/11 12:47:36;;;;;;;11.33;9.43;;;;;;;;;;5092653;28;20244;-77
2022/03/11 12:50:07;;;;;;;10.60;9.50;;;;;;;;;;5092804;28;20242;-77
2022/03/11 12:52:39;;;;;;;10.83;9.20;;;;;;;;;;5092928;28;20231;-77
2022/03/11 12:55:20;;;;;;;10.43;9.33;;;;;;;;;;5092565;28;20727;-77
2022/03/11 12:57:51;;;;;;;11.57;9.07;;;;;;;;;;5092564;28;20238;-78
2022/03/11 13:00:19;;;;;;;10.53;9.37;;;;;;;;;;5092793;28;20627;-77
2022/03/11 13:02:47;;;;;;;10.93;9.03;;;;;;;;;;5092993;28;20199;-76
2022/03/11 13:05:26;;;;;;;10.67;8.63;;;;;;;;;;5091947;28;20196;-76
2022/03/11 13:07:53;;;;;;;10.47;9.37;;;;;;;;;;5092152;28;20210;-77
2022/03/11 13:10:23;;;;;;;13.10;9.43;;;;;;;;;;5092756;28;20281;-77
2022/03/11 13:12:51;;;;;;;12.53;9.10;;;;;;;;;;5092886;28;20204;-78
2022/03/11 13:15:22;;;;;;;10.30;8.70;;;;;;;;;;5091816;28;20195;-75
2022/03/11 13:17:51;;;;;;;10.00;9.00;;;;;;;;;;5091157;28;20200;-78
2022/03/11 13:20:36;;;;;;;10.17;8.90;;;;;;;;;;5091976;28;20234;-76
2022/03/11 13:23:10;;;;;;;10.60;8.77;;;;;;;;;;5091047;28;20287;-76
2022/03/11 13:25:37;;;;;;;14.33;9.67;;;;;;;;;;5092189;28;20203;-77
2022/03/11 13:28:04;;;;;;;10.10;9.00;;;;;;;;;;5085767;28;20207;-76
2022/03/11 13:30:32;;;;;;;10.50;9.07;;;;;;;;;;5092257;28;20307;-76
2022/03/11 13:33:11;;;;;;;10.33;9.10;;;;;;;;;;5092008;28;20200;-79
2022/03/11 13:35:39;;;;;;;10.27;9.07;;;;;;;;;;5089854;28;20207;-80
2022/03/11 13:38:07;;;;;;;10.30;9.20;;;;;;;;;;5088965;28;20203;-79
2022/03/11 13:40:37;;;;;;;12.03;9.33;;;;;;;;;;5087137;28;20219;-81
2022/03/11 13:43:05;;;;;;;9.73;8.73;;;;;;;;;;5092132;28;20302;-80
2022/03/11 13:45:33;;;;;;;11.20;9.13;;;;;;;;;;5090985;28;20203;-77
2022/03/11 13:48:04;;;;;;;12.90;9.90;;;;;;;;;;5088180;28;20283;-78
2022/03/11 13:50:32;;;;;;;12.07;9.40;;;;;;;;;;5087679;28;20220;-78
2022/03/11 13:53:02;;;;;;;10.97;9.67;;;;;;;;;;5091715;28;20262;-78
2022/03/11 13:55:33;;;;;;;11.37;8.87;;;;;;;;;;5089954;28;20216;-78
2022/03/11 13:58:16;;;;;;;10.67;9.07;;;;;;;;;;5092848;28;20223;-79
2022/03/11 14:00:44;;;;;;;13.13;9.87;;;;;;;;;;5092831;28;20223;-79
2022/03/11 14:03:18;;;;;;;11.13;9.43;;;;;;;;;;5089108;28;20253;-76
2022/03/11 14:05:45;;;;;;;10.90;9.60;;;;;;;;;;5091639;28;20212;-77
2022/03/11 14:08:15;;;;;;;12.93;9.70;;;;;;;;;;5090918;28;20248;-77
2022/03/11 14:10:43;;;;;;;11.97;9.43;;;;;;;;;;5092141;28;20247;-77
2022/03/11 14:13:12;;;;;;;10.50;8.97;;;;;;;;;;5091867;28;20243;-77
2022/03/11 14:15:39;;;;;;;12.87;9.03;;;;;;;;;;5091507;28;20210;-76
2022/03/11 14:18:11;;;;;;;12.80;9.17;;;;;;;;;;5093169;28;20203;-79
2022/03/11 14:20:39;;;;;;;10.80;9.60;;;;;;;;;;5096926;28;20255;-77
2022/03/11 14:23:06;;;;;;;11.33;9.83;;;;;;;;;;5092660;28;20208;-76
2022/03/11 14:25:35;;;;;;;12.03;10.03;;;;;;;;;;5103215;28;20192;-78
2022/03/11 14:28:02;;;;;;;11.70;9.60;;;;;;;;;;5099443;28;20192;-76
2022/03/11 14:30:29;;;;;;;10.33;9.23;;;;;;;;;;5101329;28;20219;-77
2022/03/11 14:32:57;;;;;;;13.87;10.10;;;;;;;;;;5114718;28;20203;-78
2022/03/11 14:35:27;;;;;;;11.80;9.87;;;;;;;;;;5101787;28;20207;-81